Fountain, Minnesota
Current Conditions -  °F | °C
As of 2:55 PM on Sunday 21 Dec 2014 (Local Time) from KFKA Reporting Station
Haze Haze  
Wind Chill: 24°   Ceiling: 400
Heat Index: 35°   Visibility: 1.2mi
Dew Point: 34°   Wind: 20mph
Humidity: 97%   Direction: 180°S
Pressure: 29.81"   Gusts: 26mph
Location:  43.74°N, 92.14°W
Report Text: KFKA 212055Z AUTO 18017G23KT 1 1/4SM BR OVC004 02/01 A2981 RMK AO2 T00160011
Loading
Personal Weather Stations






























Interactive Weather Map New forecast layout! Learn more

10-Day Weather Forecast

Advertisements
Track Severe Weather on mobile